Time,TemperatureF,DewpointF,PressureIn,WindDirection,WindDirectionDegrees,WindSpeedMPH,WindSpeedGustMPH,Humidity,HourlyPrecipIn,Conditions,Clouds,dailyrainin,SoftwareType,DateUTC
2013-01-21 00:00:00,16.2,11.9,30.36,SSW,202,0.0,0.0,83,0.00,,---,0.22,VWS V14.01,2013-01-21 08:00:00,
2013-01-21 00:05:00,16.7,12.7,30.33,NE,45,1.6,1.6,84,0.00,,---,0.00,VWS V14.01,2013-01-21 08:05:00,
2013-01-21 00:10:00,17.4,13.7,30.33,ESE,112,0.0,0.0,85,0.00,,---,0.00,VWS V14.01,2013-01-21 08:10:00,
2013-01-21 00:15:00,18.0,14.8,30.33,East,90,2.2,2.2,87,0.00,,---,0.00,VWS V14.01,2013-01-21 08:15:00,
2013-01-21 00:21:00,18.3,15.4,30.36,East,90,0.0,0.0,88,0.00,,---,0.00,VWS V14.01,2013-01-21 08:21:00,
2013-01-21 00:26:00,18.5,15.3,30.36,ESE,112,0.0,0.0,87,0.00,,---,0.00,VWS V14.01,2013-01-21 08:26:00,
2013-01-21 00:31:00,18.5,15.3,30.36,South,180,2.2,2.2,87,0.00,,---,0.00,VWS V14.01,2013-01-21 08:31:00,
2013-01-21 00:36:00,18.5,15.3,30.36,South,180,2.7,2.7,87,0.00,,---,0.00,VWS V14.01,2013-01-21 08:36:00,
2013-01-21 00:41:00,18.5,15.3,30.36,ESE,112,2.5,2.5,87,0.00,,---,0.00,VWS V14.01,2013-01-21 08:41:00,
2013-01-21 00:46:00,18.7,15.7,30.36,ENE,68,2.0,2.0,88,0.00,,---,0.00,VWS V14.01,2013-01-21 08:46:00,
2013-01-21 00:51:00,19.0,16.6,30.36,East,90,3.4,3.4,90,0.00,,---,0.00,VWS V14.01,2013-01-21 08:51:00,
2013-01-21 00:56:00,19.2,17.3,30.36,East,90,3.4,3.4,92,0.00,,---,0.00,VWS V14.01,2013-01-21 08:56:00,
2013-01-21 01:01:00,19.2,17.3,30.36,East,90,2.5,2.5,92,0.00,,---,0.00,VWS V14.01,2013-01-21 09:01:00,
2013-01-21 01:06:00,19.2,17.3,30.36,East,90,2.2,2.2,92,0.00,,---,0.00,VWS V14.01,2013-01-21 09:06:00,
2013-01-21 01:11:00,19.2,17.3,30.36,East,90,2.0,2.0,92,0.00,,---,0.00,VWS V14.01,2013-01-21 09:11:00,
2013-01-21 01:17:00,19.4,17.5,30.36,NE,45,1.3,1.3,92,0.00,,---,0.00,VWS V14.01,2013-01-21 09:17:00,
2013-01-21 01:22:00,19.4,17.2,30.36,NE,45,1.3,1.3,91,0.00,,---,0.00,VWS V14.01,2013-01-21 09:22:00,
2013-01-21 01:27:00,19.4,17.2,30.36,East,90,3.1,3.1,91,0.00,,---,0.00,VWS V14.01,2013-01-21 09:27:00,
2013-01-21 01:32:00,19.4,17.2,30.36,NNE,22,1.6,1.6,91,0.00,,---,0.00,VWS V14.01,2013-01-21 09:32:00,
2013-01-21 01:37:00,19.4,17.2,30.36,ENE,68,1.3,1.3,91,0.00,,---,0.00,VWS V14.01,2013-01-21 09:37:00,
2013-01-21 01:42:00,19.4,17.0,30.36,East,90,2.2,2.2,90,0.00,,---,0.00,VWS V14.01,2013-01-21 09:42:00,
2013-01-21 01:47:00,19.4,17.0,30.36,NNE,22,0.0,0.0,90,0.00,,---,0.00,VWS V14.01,2013-01-21 09:47:00,
2013-01-21 01:52:00,19.4,17.0,30.36,ESE,112,2.0,2.0,90,0.00,,---,0.00,VWS V14.01,2013-01-21 09:52:00,
2013-01-21 01:57:00,19.4,17.0,30.36,East,90,2.0,2.0,90,0.00,,---,0.00,VWS V14.01,2013-01-21 09:57:00,
2013-01-21 02:02:00,19.6,17.1,30.36,ESE,112,0.0,0.0,90,0.00,,---,0.00,VWS V14.01,2013-01-21 10:02:00,
2013-01-21 02:07:00,19.6,16.9,30.36,NNE,22,1.1,1.1,89,0.00,,---,0.00,VWS V14.01,2013-01-21 10:07:00,
2013-01-21 02:12:00,19.6,16.9,30.36,ENE,68,1.3,1.3,89,0.00,,---,0.00,VWS V14.01,2013-01-21 10:12:00,
2013-01-21 02:17:00,19.6,16.9,30.39,East,90,1.6,1.6,89,0.00,,---,0.00,VWS V14.01,2013-01-21 10:17:00,
2013-01-21 02:22:00,19.6,16.9,30.39,East,90,0.0,0.0,89,0.00,,---,0.00,VWS V14.01,2013-01-21 10:22:00,
2013-01-21 02:28:00,19.6,16.9,30.39,NNE,22,1.1,1.1,89,0.00,,---,0.00,VWS V14.01,2013-01-21 10:28:00,
2013-01-21 02:33:00,19.6,16.9,30.39,ESE,112,1.6,1.6,89,0.00,,---,0.00,VWS V14.01,2013-01-21 10:33:00,
2013-01-21 02:38:00,19.6,16.9,30.36,East,90,1.6,1.6,89,0.00,,---,0.00,VWS V14.01,2013-01-21 10:38:00,
2013-01-21 02:43:00,19.6,16.9,30.36,ESE,112,2.9,2.9,89,0.00,,---,0.00,VWS V14.01,2013-01-21 10:43:00,
2013-01-21 02:48:00,19.4,17.0,30.36,East,90,2.0,2.0,90,0.00,,---,0.00,VWS V14.01,2013-01-21 10:48:00,
2013-01-21 02:53:00,19.4,17.0,30.36,ENE,68,0.0,0.0,90,0.00,,---,0.00,VWS V14.01,2013-01-21 10:53:00,
2013-01-21 02:58:00,19.4,17.0,30.36,ENE,68,1.6,1.6,90,0.00,,---,0.00,VWS V14.01,2013-01-21 10:58:00,
2013-01-21 03:03:00,19.4,16.7,30.36,ESE,112,2.5,2.5,89,0.00,,---,0.00,VWS V14.01,2013-01-21 11:03:00,
2013-01-21 03:08:00,19.2,16.8,30.36,ESE,112,2.0,2.0,90,0.00,,---,0.00,VWS V14.01,2013-01-21 11:08:00,
2013-01-21 03:13:00,19.2,16.5,30.36,East,90,2.0,2.0,89,0.00,,---,0.00,VWS V14.01,2013-01-21 11:13:00,
2013-01-21 03:18:00,19.2,16.8,30.36,ESE,112,2.7,2.7,90,0.00,,---,0.00,VWS V14.01,2013-01-21 11:18:00,
2013-01-21 03:24:00,19.2,16.8,30.36,East,90,2.7,2.7,90,0.00,,---,0.00,VWS V14.01,2013-01-21 11:24:00,
2013-01-21 03:29:00,19.2,16.8,30.36,East,90,2.5,2.5,90,0.00,,---,0.00,VWS V14.01,2013-01-21 11:29:00,
2013-01-21 03:34:00,19.4,17.0,30.36,ENE,68,2.0,2.0,90,0.00,,---,0.00,VWS V14.01,2013-01-21 11:34:00,
2013-01-21 03:39:00,19.4,17.0,30.36,East,90,2.2,2.2,90,0.00,,---,0.00,VWS V14.01,2013-01-21 11:39:00,
2013-01-21 03:44:00,19.4,17.0,30.36,SE,135,2.0,2.0,90,0.00,,---,0.00,VWS V14.01,2013-01-21 11:44:00,
2013-01-21 03:49:00,19.4,17.0,30.36,SSE,158,1.1,1.1,90,0.00,,---,0.00,VWS V14.01,2013-01-21 11:49:00,
2013-01-21 03:54:00,19.4,16.7,30.36,NNE,22,0.0,0.0,89,0.00,,---,0.00,VWS V14.01,2013-01-21 11:54:00,
2013-01-21 03:59:00,19.4,16.7,30.36,East,90,0.0,0.0,89,0.00,,---,0.00,VWS V14.01,2013-01-21 11:59:00,
2013-01-21 04:04:00,19.4,16.7,30.36,NNE,22,0.0,0.0,89,0.00,,---,0.00,VWS V14.01,2013-01-21 12:04:00,
2013-01-21 04:09:00,19.4,16.7,30.36,ESE,112,2.5,2.5,89,0.00,,---,0.00,VWS V14.01,2013-01-21 12:09:00,
2013-01-21 04:14:00,19.4,16.7,30.36,ENE,68,2.0,2.0,89,0.00,,---,0.00,VWS V14.01,2013-01-21 12:14:00,
2013-01-21 04:20:00,19.4,17.0,30.36,East,90,1.6,1.6,90,0.00,,---,0.00,VWS V14.01,2013-01-21 12:20:00,
2013-01-21 04:25:00,19.6,17.1,30.36,ENE,68,2.2,2.2,90,0.00,,---,0.00,VWS V14.01,2013-01-21 12:25:00,
2013-01-21 04:30:00,19.6,17.1,30.36,ENE,68,1.6,1.6,90,0.00,,---,0.00,VWS V14.01,2013-01-21 12:30:00,
2013-01-21 04:35:00,19.6,17.1,30.33,ESE,112,3.4,3.4,90,0.00,,---,0.00,VWS V14.01,2013-01-21 12:35:00,
2013-01-21 04:40:00,19.6,17.1,30.33,ESE,112,2.5,2.5,90,0.00,,---,0.00,VWS V14.01,2013-01-21 12:40:00,
2013-01-21 04:45:00,19.8,17.3,30.33,East,90,2.0,2.0,90,0.00,,---,0.00,VWS V14.01,2013-01-21 12:45:00,
2013-01-21 04:50:00,19.8,17.3,30.33,East,90,2.0,2.0,90,0.00,,---,0.00,VWS V14.01,2013-01-21 12:50:00,
2013-01-21 04:55:00,19.8,17.3,30.33,ESE,112,3.6,3.6,90,0.00,,---,0.00,VWS V14.01,2013-01-21 12:55:00,
2013-01-21 05:00:00,19.8,17.3,30.33,ESE,112,2.5,2.5,90,0.00,,---,0.00,VWS V14.01,2013-01-21 13:00:00,
2013-01-21 05:05:00,19.6,17.1,30.30,ESE,112,2.0,2.0,90,0.00,,---,0.00,VWS V14.01,2013-01-21 13:05:00,
2013-01-21 05:10:00,19.6,17.1,30.30,East,90,0.0,0.0,90,0.00,,---,0.00,VWS V14.01,2013-01-21 13:10:00,
2013-01-21 05:15:00,19.6,17.1,30.30,East,90,2.0,2.0,90,0.00,,---,0.00,VWS V14.01,2013-01-21 13:15:00,
2013-01-21 05:21:00,19.6,17.1,30.30,NNE,22,0.0,0.0,90,0.00,,---,0.00,VWS V14.01,2013-01-21 13:21:00,
2013-01-21 05:26:00,19.6,17.1,30.30,ENE,68,0.0,0.0,90,0.00,,---,0.00,VWS V14.01,2013-01-21 13:26:00,
2013-01-21 05:31:00,19.6,16.9,30.30,ESE,112,1.3,1.3,89,0.00,,---,0.00,VWS V14.01,2013-01-21 13:31:00,
2013-01-21 05:36:00,19.6,16.9,30.30,NNE,22,0.0,0.0,89,0.00,,---,0.00,VWS V14.01,2013-01-21 13:36:00,
2013-01-21 05:41:00,19.6,16.9,30.30,NE,45,0.9,0.9,89,0.00,,---,0.00,VWS V14.01,2013-01-21 13:41:00,
2013-01-21 05:46:00,19.6,16.9,30.30,ENE,68,2.5,2.5,89,0.00,,---,0.00,VWS V14.01,2013-01-21 13:46:00,
2013-01-21 05:51:00,19.4,16.7,30.30,East,90,2.7,2.7,89,0.00,,---,0.00,VWS V14.01,2013-01-21 13:51:00,
2013-01-21 05:56:00,19.4,16.7,30.30,South,180,1.1,1.1,89,0.00,,---,0.00,VWS V14.01,2013-01-21 13:56:00,
2013-01-21 06:01:00,19.4,16.7,30.33,NE,45,1.1,1.1,89,0.00,,---,0.00,VWS V14.01,2013-01-21 14:01:00,
2013-01-21 06:06:00,19.4,16.7,30.33,NE,45,1.3,1.3,89,0.00,,---,0.00,VWS V14.01,2013-01-21 14:06:00,
2013-01-21 06:11:00,19.4,16.7,30.33,ESE,112,1.6,1.6,89,0.00,,---,0.00,VWS V14.01,2013-01-21 14:11:00,
2013-01-21 06:16:00,19.4,17.0,30.30,ESE,112,2.9,2.9,90,0.00,,---,0.00,VWS V14.01,2013-01-21 14:16:00,
2013-01-21 06:21:00,19.4,17.0,30.30,SSE,158,2.0,2.0,90,0.00,,---,0.00,VWS V14.01,2013-01-21 14:21:00,
2013-01-21 06:27:00,19.4,17.0,30.30,South,180,2.0,2.0,90,0.00,,---,0.00,VWS V14.01,2013-01-21 14:27:00,
2013-01-21 06:32:00,19.4,17.0,30.30,ESE,112,3.4,3.4,90,0.00,,---,0.00,VWS V14.01,2013-01-21 14:32:00,
2013-01-21 06:37:00,19.4,17.0,30.30,South,180,1.3,1.3,90,0.00,,---,0.00,VWS V14.01,2013-01-21 14:37:00,
2013-01-21 06:42:00,19.6,16.9,30.30,East,90,2.0,2.0,89,0.00,,---,0.00,VWS V14.01,2013-01-21 14:42:00,
2013-01-21 06:47:00,19.6,17.1,30.30,ESE,112,2.7,2.7,90,0.00,,---,0.00,VWS V14.01,2013-01-21 14:47:00,
2013-01-21 06:52:00,19.6,17.1,30.30,SE,135,2.0,2.0,90,0.00,,---,0.00,VWS V14.01,2013-01-21 14:52:00,
2013-01-21 06:57:00,19.6,17.1,30.30,ESE,112,1.6,1.6,90,0.00,,---,0.00,VWS V14.01,2013-01-21 14:57:00,
2013-01-21 07:02:00,19.6,16.9,30.30,South,180,1.6,1.6,89,0.00,,---,0.00,VWS V14.01,2013-01-21 15:02:00,
2013-01-21 07:07:00,19.6,16.9,30.30,SSE,158,1.1,1.1,89,0.00,,---,0.00,VWS V14.01,2013-01-21 15:07:00,
2013-01-21 07:12:00,19.6,16.9,30.30,SSE,158,1.1,1.1,89,0.00,,---,0.00,VWS V14.01,2013-01-21 15:12:00,
2013-01-21 07:17:00,19.6,16.9,30.30,SSW,202,0.0,0.0,89,0.00,,---,99.99,VWS V14.01,2013-01-21 15:17:00,
2013-01-21 07:23:00,19.6,16.9,30.30,ESE,112,0.0,0.0,89,0.00,,---,0.00,VWS V14.01,2013-01-21 15:23:00,
2013-01-21 07:28:00,19.6,16.9,30.30,SSE,158,0.0,0.0,89,0.00,,---,0.00,VWS V14.01,2013-01-21 15:28:00,
2013-01-21 07:33:00,19.6,16.9,30.30,North,0,1.6,1.6,89,0.00,,---,0.00,VWS V14.01,2013-01-21 15:33:00,
2013-01-21 07:38:00,19.6,16.9,30.30,ESE,112,0.0,0.0,89,0.00,,---,0.00,VWS V14.01,2013-01-21 15:38:00,
2013-01-21 07:43:00,19.6,16.9,30.30,ESE,112,2.5,2.5,89,0.00,,---,0.00,VWS V14.01,2013-01-21 15:43:00,
2013-01-21 07:48:00,19.6,16.9,30.30,SSE,158,1.6,1.6,89,0.00,,---,0.00,VWS V14.01,2013-01-21 15:48:00,
2013-01-21 07:53:00,19.8,17.0,30.30,East,90,2.2,2.2,89,0.00,,---,0.00,VWS V14.01,2013-01-21 15:53:00,
2013-01-21 07:58:00,19.8,17.0,30.30,SE,135,2.0,2.0,89,0.00,,---,0.00,VWS V14.01,2013-01-21 15:58:00,
2013-01-21 08:03:00,19.8,17.0,30.30,East,90,2.5,2.5,89,0.00,,---,0.00,VWS V14.01,2013-01-21 16:03:00,
2013-01-21 08:08:00,19.8,17.0,30.30,South,180,1.6,1.6,89,0.00,,---,0.00,VWS V14.01,2013-01-21 16:08:00,
2013-01-21 08:13:00,19.9,17.2,30.30,SSE,158,0.0,0.0,89,0.00,,---,0.00,VWS V14.01,2013-01-21 16:13:00,
2013-01-21 08:18:00,20.1,17.4,30.30,SE,135,0.0,0.0,89,0.00,,---,0.00,VWS V14.01,2013-01-21 16:18:00,
2013-01-21 08:23:00,20.3,17.6,30.30,SE,135,1.3,1.3,89,0.00,,---,0.00,VWS V14.01,2013-01-21 16:23:00,
2013-01-21 08:29:00,20.3,17.6,30.30,NE,45,0.0,0.0,89,0.00,,---,0.00,VWS V14.01,2013-01-21 16:29:00,
2013-01-21 08:34:00,20.5,17.8,30.30,SSW,202,0.0,0.0,89,0.00,,---,0.00,VWS V14.01,2013-01-21 16:34:00,
2013-01-21 08:39:00,20.8,18.1,30.30,SW,225,0.0,0.0,89,0.00,,---,0.00,VWS V14.01,2013-01-21 16:39:00,
2013-01-21 08:44:00,21.0,18.5,30.30,East,90,2.2,2.2,90,0.00,,---,0.00,VWS V14.01,2013-01-21 16:44:00,
2013-01-21 08:49:00,21.0,18.3,30.27,ESE,112,0.0,0.0,89,0.00,,---,0.00,VWS V14.01,2013-01-21 16:49:00,
2013-01-21 08:54:00,21.0,18.3,30.27,SSE,158,0.9,0.9,89,0.00,,---,0.00,VWS V14.01,2013-01-21 16:54:00,
2013-01-21 08:59:00,21.0,18.3,30.27,ESE,112,2.0,2.0,89,0.00,,---,0.00,VWS V14.01,2013-01-21 16:59:00,
2013-01-21 09:04:00,21.2,18.5,30.30,ESE,112,1.6,1.6,89,0.00,,---,0.00,VWS V14.01,2013-01-21 17:04:00,
2013-01-21 09:09:00,21.0,18.3,30.30,SE,135,2.5,2.5,89,0.00,,---,0.00,VWS V14.01,2013-01-21 17:09:00,
2013-01-21 09:14:00,21.2,18.5,30.30,East,90,1.6,1.6,89,0.00,,---,0.00,VWS V14.01,2013-01-21 17:14:00,
2013-01-21 09:19:00,21.2,18.5,30.30,SSE,158,2.0,2.0,89,0.00,,---,0.00,VWS V14.01,2013-01-21 17:19:00,
2013-01-21 09:24:00,21.2,18.5,30.30,ESE,112,2.0,2.0,89,0.00,,---,0.00,VWS V14.01,2013-01-21 17:24:00,
2013-01-21 09:30:00,21.6,18.8,30.30,SE,135,0.9,0.9,89,0.00,,---,0.00,VWS V14.01,2013-01-21 17:30:00,
2013-01-21 09:35:00,21.6,18.8,30.30,NNW,338,2.5,2.5,89,0.00,,---,0.00,VWS V14.01,2013-01-21 17:35:00,
2013-01-21 09:40:00,21.9,19.2,30.30,ENE,68,0.0,0.0,89,0.00,,---,0.00,VWS V14.01,2013-01-21 17:40:00,
2013-01-21 09:45:00,22.1,19.4,30.30,ENE,68,1.6,1.6,89,0.00,,---,0.00,VWS V14.01,2013-01-21 17:45:00,
2013-01-21 09:50:00,22.3,19.5,30.30,NNE,22,1.1,1.1,89,0.00,,---,0.00,VWS V14.01,2013-01-21 17:50:00,
2013-01-21 09:55:00,22.8,20.1,30.30,ENE,68,0.0,0.0,89,0.00,,---,0.00,VWS V14.01,2013-01-21 17:55:00,
2013-01-21 10:00:00,22.6,19.9,30.30,SSE,158,2.9,2.9,89,0.00,,---,0.00,VWS V14.01,2013-01-21 18:00:00,
2013-01-21 10:05:00,22.3,19.3,30.30,East,90,2.9,2.9,88,0.00,,---,0.00,VWS V14.01,2013-01-21 18:05:00,
2013-01-21 10:10:00,22.8,19.8,30.30,NNE,22,0.9,0.9,88,0.00,,---,0.00,VWS V14.01,2013-01-21 18:10:00,
2013-01-21 10:15:00,22.6,19.6,30.30,ESE,112,1.1,1.1,88,0.00,,---,0.00,VWS V14.01,2013-01-21 18:15:00,
2013-01-21 10:20:00,22.8,19.8,30.27,SSE,158,2.5,2.5,88,0.00,,---,0.00,VWS V14.01,2013-01-21 18:20:00,
2013-01-21 10:25:00,23.0,20.0,30.27,WSW,248,0.0,0.0,88,0.00,,---,0.00,VWS V14.01,2013-01-21 18:25:00,
2013-01-21 10:31:00,23.2,19.9,30.27,WSW,248,0.0,0.0,87,0.00,,---,0.00,VWS V14.01,2013-01-21 18:31:00,
2013-01-21 10:36:00,23.2,19.9,30.33,WNW,292,2.0,2.0,87,0.00,,---,0.00,VWS V14.01,2013-01-21 18:36:00,
2013-01-21 10:41:00,23.4,20.1,30.33,WNW,292,0.0,0.0,87,0.00,,---,0.00,VWS V14.01,2013-01-21 18:41:00,
2013-01-21 10:46:00,23.4,20.1,30.33,West,270,0.9,0.9,87,0.00,,---,0.00,VWS V14.01,2013-01-21 18:46:00,
2013-01-21 10:51:00,23.4,19.8,30.30,WNW,292,1.6,1.6,86,0.00,,---,0.00,VWS V14.01,2013-01-21 18:51:00,
2013-01-21 10:56:00,23.2,19.4,30.30,West,270,1.6,1.6,85,0.00,,---,0.00,VWS V14.01,2013-01-21 18:56:00,
2013-01-21 11:01:00,22.8,19.0,30.30,West,270,1.6,1.6,85,0.00,,---,0.00,VWS V14.01,2013-01-21 19:01:00,
2013-01-21 11:06:00,22.8,18.7,30.30,West,270,2.0,2.0,84,0.00,,---,0.00,VWS V14.01,2013-01-21 19:06:00,
2013-01-21 11:11:00,23.2,19.1,30.30,NW,315,2.9,2.9,84,0.00,,---,0.00,VWS V14.01,2013-01-21 19:11:00,
2013-01-21 11:16:00,23.5,19.4,30.30,NW,315,1.6,1.6,84,0.00,,---,0.00,VWS V14.01,2013-01-21 19:16:00,
2013-01-21 11:21:00,23.9,20.1,30.30,WSW,248,1.6,1.6,85,0.00,,---,0.00,VWS V14.01,2013-01-21 19:21:00,
2013-01-21 11:26:00,23.9,20.1,30.30,WSW,248,0.0,0.0,85,0.00,,---,0.00,VWS V14.01,2013-01-21 19:26:00,
2013-01-21 11:31:00,23.9,20.1,30.30,West,270,2.0,2.0,85,0.00,,---,0.00,VWS V14.01,2013-01-21 19:31:00,
2013-01-21 11:37:00,24.3,20.4,30.30,NW,315,2.2,2.2,85,0.00,,---,0.00,VWS V14.01,2013-01-21 19:37:00,
2013-01-21 11:42:00,24.4,20.6,30.30,NW,315,2.5,2.5,85,0.00,,---,0.00,VWS V14.01,2013-01-21 19:42:00,
2013-01-21 11:47:00,24.8,20.9,30.30,West,270,1.6,1.6,85,0.00,,---,0.00,VWS V14.01,2013-01-21 19:47:00,
2013-01-21 11:52:00,25.0,21.1,30.30,WSW,248,1.6,1.6,85,0.00,,---,0.00,VWS V14.01,2013-01-21 19:52:00,
2013-01-21 11:57:00,25.0,21.1,30.30,NW,315,2.5,2.5,85,0.00,,---,0.00,VWS V14.01,2013-01-21 19:57:00,
2013-01-21 12:02:00,25.0,21.1,30.27,NW,315,2.7,2.7,85,0.00,,---,0.00,VWS V14.01,2013-01-21 20:02:00,
2013-01-21 12:07:00,25.2,21.3,30.27,NNW,338,2.2,2.2,85,0.00,,---,0.00,VWS V14.01,2013-01-21 20:07:00,
2013-01-21 12:12:00,25.3,21.2,30.27,NW,315,0.0,0.0,84,0.00,,---,0.00,VWS V14.01,2013-01-21 20:12:00,
2013-01-21 12:17:00,25.3,21.2,30.27,West,270,0.9,0.9,84,0.00,,---,0.00,VWS V14.01,2013-01-21 20:17:00,
2013-01-21 12:22:00,25.3,20.9,30.27,WNW,292,0.0,0.0,83,0.00,,---,0.00,VWS V14.01,2013-01-21 20:22:00,
2013-01-21 12:27:00,25.5,21.1,30.27,NW,315,0.9,0.9,83,0.00,,---,0.00,VWS V14.01,2013-01-21 20:27:00,
2013-01-21 12:32:00,25.7,21.3,30.24,WNW,292,0.9,0.9,83,0.00,,---,0.00,VWS V14.01,2013-01-21 20:32:00,
2013-01-21 12:38:00,25.5,20.8,30.24,West,270,0.0,0.0,82,0.00,,---,0.00,VWS V14.01,2013-01-21 20:38:00,
2013-01-21 12:43:00,25.9,21.4,30.24,NW,315,2.5,2.5,83,0.00,,---,0.00,VWS V14.01,2013-01-21 20:43:00,
2013-01-21 12:48:00,26.1,21.3,30.24,WNW,292,0.0,0.0,82,0.00,,---,0.00,VWS V14.01,2013-01-21 20:48:00,
2013-01-21 12:53:00,26.1,21.0,30.24,NW,315,0.0,0.0,81,0.00,,---,0.00,VWS V14.01,2013-01-21 20:53:00,
2013-01-21 12:58:00,26.6,21.6,30.24,SE,135,0.0,0.0,81,0.00,,---,0.00,VWS V14.01,2013-01-21 20:58:00,
2013-01-21 13:03:00,26.2,20.9,30.24,SE,135,0.0,0.0,80,0.00,,---,0.00,VWS V14.01,2013-01-21 21:03:00,
2013-01-21 13:08:00,26.8,21.7,30.24,WNW,292,2.0,2.0,81,0.00,,---,0.00,VWS V14.01,2013-01-21 21:08:00,
2013-01-21 13:13:00,26.6,21.3,30.24,North,0,0.9,0.9,80,0.00,,---,0.00,VWS V14.01,2013-01-21 21:13:00,
2013-01-21 13:18:00,26.8,20.9,30.24,NW,315,1.6,1.6,78,0.00,,---,0.00,VWS V14.01,2013-01-21 21:18:00,
2013-01-21 13:23:00,26.8,20.9,30.24,West,270,0.0,0.0,78,0.00,,---,0.00,VWS V14.01,2013-01-21 21:23:00,
2013-01-21 13:28:00,26.8,20.9,30.24,NNW,338,2.5,2.5,78,0.00,,---,0.00,VWS V14.01,2013-01-21 21:28:00,
2013-01-21 13:33:00,27.1,21.2,30.24,West,270,1.6,1.6,78,0.00,,---,0.00,VWS V14.01,2013-01-21 21:33:00,
2013-01-21 13:38:00,27.0,20.7,30.24,West,270,0.0,0.0,77,0.00,,---,0.00,VWS V14.01,2013-01-21 21:38:00,
2013-01-21 13:44:00,27.0,20.4,30.24,SSW,202,0.0,0.0,76,0.00,,---,0.00,VWS V14.01,2013-01-21 21:44:00,
2013-01-21 13:49:00,27.0,20.7,30.24,SE,135,1.1,1.1,77,0.00,,---,0.00,VWS V14.01,2013-01-21 21:49:00,
2013-01-21 13:54:00,27.1,20.9,30.24,North,0,0.0,0.0,77,0.00,,---,0.00,VWS V14.01,2013-01-21 21:54:00,
2013-01-21 13:59:00,27.3,20.8,30.24,WNW,292,0.0,0.0,76,0.00,,---,0.00,VWS V14.01,2013-01-21 21:59:00,
2013-01-21 14:04:00,27.0,20.4,30.24,NNW,338,1.6,1.6,76,0.00,,---,0.00,VWS V14.01,2013-01-21 22:04:00,
2013-01-21 14:09:00,27.0,20.4,30.24,NNW,338,0.0,0.0,76,0.00,,---,0.00,VWS V14.01,2013-01-21 22:09:00,
2013-01-21 14:14:00,27.1,20.9,30.24,NE,45,2.2,2.2,77,0.00,,---,0.00,VWS V14.01,2013-01-21 22:14:00,
2013-01-21 14:19:00,27.1,20.6,30.21,NNE,22,0.0,0.0,76,0.00,,---,0.00,VWS V14.01,2013-01-21 22:19:00,
2013-01-21 14:24:00,27.0,20.4,30.21,SW,225,0.0,0.0,76,0.00,,---,0.00,VWS V14.01,2013-01-21 22:24:00,
2013-01-21 14:29:00,27.3,21.1,30.21,North,0,0.0,0.0,77,0.00,,---,0.00,VWS V14.01,2013-01-21 22:29:00,
2013-01-21 14:34:00,27.3,21.1,30.21,NNW,338,2.0,2.0,77,0.00,,---,0.00,VWS V14.01,2013-01-21 22:34:00,
2013-01-21 14:39:00,27.3,20.8,30.21,NNW,338,0.0,0.0,76,0.00,,---,0.00,VWS V14.01,2013-01-21 22:39:00,
2013-01-21 14:44:00,27.0,20.4,30.21,NNW,338,1.1,1.1,76,0.00,,---,0.00,VWS V14.01,2013-01-21 22:44:00,
2013-01-21 14:49:00,26.6,20.4,30.21,South,180,0.0,0.0,77,0.00,,---,0.00,VWS V14.01,2013-01-21 22:49:00,
2013-01-21 14:55:00,26.8,20.5,30.21,NNW,338,0.0,0.0,77,0.00,,---,0.00,VWS V14.01,2013-01-21 22:55:00,
2013-01-21 15:00:00,26.6,20.4,30.21,North,0,0.9,0.9,77,0.00,,---,0.00,VWS V14.01,2013-01-21 23:00:00,
2013-01-21 15:05:00,26.2,20.0,30.24,WNW,292,2.0,2.0,77,0.00,,---,0.00,VWS V14.01,2013-01-21 23:05:00,
2013-01-21 15:10:00,26.1,19.9,30.24,West,270,0.0,0.0,77,0.00,,---,0.00,VWS V14.01,2013-01-21 23:10:00,
2013-01-21 15:15:00,26.1,20.1,30.24,ENE,68,0.0,0.0,78,0.00,,---,0.00,VWS V14.01,2013-01-21 23:15:00,
2013-01-21 15:20:00,26.1,20.5,30.21,NNE,22,0.0,0.0,79,0.00,,---,0.00,VWS V14.01,2013-01-21 23:20:00,
2013-01-21 15:25:00,25.9,20.3,30.21,WNW,292,0.0,0.0,79,0.00,,---,0.00,VWS V14.01,2013-01-21 23:25:00,
2013-01-21 15:30:00,25.7,20.1,30.21,North,0,0.0,0.0,79,0.00,,---,0.00,VWS V14.01,2013-01-21 23:30:00,
2013-01-21 15:35:00,25.5,19.9,30.24,West,270,0.0,0.0,79,0.00,,---,0.00,VWS V14.01,2013-01-21 23:35:00,
2013-01-21 15:40:00,25.3,19.8,30.24,WNW,292,0.0,0.0,79,0.00,,---,0.00,VWS V14.01,2013-01-21 23:40:00,
2013-01-21 15:45:00,25.3,20.0,30.24,WSW,248,0.0,0.0,80,0.00,,---,0.00,VWS V14.01,2013-01-21 23:45:00,
2013-01-21 15:50:00,25.3,20.0,30.21,West,270,0.0,0.0,80,0.00,,---,0.00,VWS V14.01,2013-01-21 23:50:00,
2013-01-21 15:55:00,25.2,20.2,30.21,SW,225,0.0,0.0,81,0.00,,---,0.00,VWS V14.01,2013-01-21 23:55:00,
2013-01-21 16:01:00,25.2,20.2,30.21,ENE,68,0.0,0.0,81,0.00,,---,0.00,VWS V14.01,2013-01-22 00:01:00,
2013-01-21 16:06:00,24.8,19.8,30.24,ENE,68,0.0,0.0,81,0.00,,---,0.00,VWS V14.01,2013-01-22 00:06:00,
2013-01-21 16:11:00,24.6,19.9,30.24,East,90,0.0,0.0,82,0.00,,---,0.00,VWS V14.01,2013-01-22 00:11:00,
2013-01-21 16:16:00,24.6,19.9,30.24,NNE,22,0.0,0.0,82,0.00,,---,0.00,VWS V14.01,2013-01-22 00:16:00,
2013-01-21 16:21:00,24.4,19.7,30.24,NNE,22,0.0,0.0,82,0.00,,---,0.00,VWS V14.01,2013-01-22 00:21:00,
2013-01-21 16:26:00,24.3,19.6,30.24,North,0,0.0,0.0,82,0.00,,---,0.00,VWS V14.01,2013-01-22 00:26:00,
2013-01-21 16:31:00,24.3,19.6,30.24,NNE,22,0.0,0.0,82,0.00,,---,0.00,VWS V14.01,2013-01-22 00:31:00,
2013-01-21 16:36:00,24.1,19.4,30.24,East,90,0.0,0.0,82,0.00,,---,0.00,VWS V14.01,2013-01-22 00:36:00,
2013-01-21 16:41:00,23.9,19.5,30.24,ENE,68,0.0,0.0,83,0.00,,---,0.00,VWS V14.01,2013-01-22 00:41:00,
2013-01-21 16:46:00,23.7,19.6,30.24,ESE,112,0.0,0.0,84,0.00,,---,0.00,VWS V14.01,2013-01-22 00:46:00,
2013-01-21 16:51:00,23.5,19.7,30.24,East,90,1.6,1.6,85,0.00,,---,0.00,VWS V14.01,2013-01-22 00:51:00,
2013-01-21 16:56:00,23.4,19.5,30.24,SSE,158,1.1,1.1,85,0.00,,---,0.00,VWS V14.01,2013-01-22 00:56:00,
2013-01-21 17:01:00,23.4,19.5,30.24,SSE,158,0.0,0.0,85,0.00,,---,0.00,VWS V14.01,2013-01-22 01:01:00,
2013-01-21 17:07:00,23.2,19.6,30.24,South,180,0.0,0.0,86,0.00,,---,0.00,VWS V14.01,2013-01-22 01:07:00,
2013-01-21 17:12:00,23.2,19.6,30.24,SSW,202,0.0,0.0,86,0.00,,---,0.00,VWS V14.01,2013-01-22 01:12:00,
2013-01-21 17:17:00,23.2,19.6,30.24,SW,225,0.0,0.0,86,0.00,,---,0.00,VWS V14.01,2013-01-22 01:17:00,
2013-01-21 17:22:00,23.2,19.6,30.24,ENE,68,0.0,0.0,86,0.00,,---,0.00,VWS V14.01,2013-01-22 01:22:00,
2013-01-21 17:27:00,23.2,19.9,30.24,SSE,158,0.0,0.0,87,0.00,,---,0.00,VWS V14.01,2013-01-22 01:27:00,
2013-01-21 17:32:00,23.2,19.9,30.21,South,180,1.1,1.1,87,0.00,,---,0.00,VWS V14.01,2013-01-22 01:32:00,
2013-01-21 17:37:00,23.0,19.7,30.21,SSW,202,0.0,0.0,87,0.00,,---,0.00,VWS V14.01,2013-01-22 01:37:00,
2013-01-21 17:42:00,22.8,19.8,30.21,SSE,158,1.1,1.1,88,0.00,,---,0.00,VWS V14.01,2013-01-22 01:42:00,
2013-01-21 17:47:00,22.8,19.8,30.21,SSE,158,1.1,1.1,88,0.00,,---,0.00,VWS V14.01,2013-01-22 01:47:00,
2013-01-21 17:52:00,22.6,19.6,30.24,ENE,68,0.0,0.0,88,0.00,,---,0.00,VWS V14.01,2013-01-22 01:52:00,
2013-01-21 17:57:00,22.6,19.6,30.24,North,0,0.0,0.0,88,0.00,,---,0.00,VWS V14.01,2013-01-22 01:57:00,
2013-01-21 18:02:00,22.5,19.5,30.24,SW,225,0.0,0.0,88,0.00,,---,0.00,VWS V14.01,2013-01-22 02:02:00,
2013-01-21 18:08:00,22.5,19.5,30.24,SW,225,0.0,0.0,88,0.00,,---,0.00,VWS V14.01,2013-01-22 02:08:00,
2013-01-21 18:13:00,22.5,19.5,30.24,WSW,248,0.0,0.0,88,0.00,,---,0.00,VWS V14.01,2013-01-22 02:13:00,
2013-01-21 18:18:00,22.5,19.5,30.24,SSW,202,0.0,0.0,88,0.00,,---,0.00,VWS V14.01,2013-01-22 02:18:00,
2013-01-21 18:23:00,22.5,19.5,30.24,SW,225,0.0,0.0,88,0.00,,---,0.00,VWS V14.01,2013-01-22 02:23:00,
2013-01-21 18:28:00,22.3,19.3,30.24,SW,225,0.0,0.0,88,0.00,,---,0.00,VWS V14.01,2013-01-22 02:28:00,
2013-01-21 18:33:00,22.3,19.3,30.24,SW,225,0.0,0.0,88,0.00,,---,0.00,VWS V14.01,2013-01-22 02:33:00,
2013-01-21 18:38:00,22.1,19.4,30.24,SSE,158,2.0,2.0,89,0.00,,---,0.00,VWS V14.01,2013-01-22 02:38:00,
2013-01-21 18:43:00,21.9,18.9,30.24,SSE,158,2.5,2.5,88,0.00,,---,0.00,VWS V14.01,2013-01-22 02:43:00,
2013-01-21 18:48:00,21.7,18.7,30.21,SSE,158,2.7,2.7,88,0.00,,---,0.00,VWS V14.01,2013-01-22 02:48:00,
2013-01-21 18:53:00,21.4,18.4,30.21,South,180,0.0,0.0,88,0.00,,---,0.00,VWS V14.01,2013-01-22 02:53:00,
2013-01-21 18:58:00,21.4,18.6,30.21,SSW,202,0.0,0.0,89,0.00,,---,0.00,VWS V14.01,2013-01-22 02:58:00,
2013-01-21 19:04:00,21.4,18.6,30.24,SW,225,0.0,0.0,89,0.00,,---,0.00,VWS V14.01,2013-01-22 03:04:00,
2013-01-21 19:09:00,21.4,18.6,30.24,SSW,202,2.5,2.5,89,0.00,,---,0.00,VWS V14.01,2013-01-22 03:09:00,
2013-01-21 19:14:00,21.4,18.6,30.24,South,180,0.0,0.0,89,0.00,,---,0.00,VWS V14.01,2013-01-22 03:14:00,
2013-01-21 19:19:00,21.6,18.8,30.24,South,180,0.0,0.0,89,0.00,,---,0.00,VWS V14.01,2013-01-22 03:19:00,
2013-01-21 19:24:00,21.6,19.1,30.24,SSW,202,0.0,0.0,90,0.00,,---,0.00,VWS V14.01,2013-01-22 03:24:00,
2013-01-21 19:29:00,21.6,19.1,30.24,SW,225,0.0,0.0,90,0.00,,---,0.00,VWS V14.01,2013-01-22 03:29:00,
2013-01-21 19:34:00,21.6,19.1,30.21,SE,135,2.5,2.5,90,0.00,,---,0.00,VWS V14.01,2013-01-22 03:34:00,
2013-01-21 19:39:00,21.6,18.8,30.21,SSE,158,2.0,2.0,89,0.00,,---,0.00,VWS V14.01,2013-01-22 03:39:00,
2013-01-21 19:44:00,21.4,18.9,30.21,SSE,158,2.5,2.5,90,0.00,,---,0.00,VWS V14.01,2013-01-22 03:44:00,
2013-01-21 19:49:00,21.4,18.9,30.24,South,180,2.5,2.5,90,0.00,,---,0.00,VWS V14.01,2013-01-22 03:49:00,
2013-01-21 19:54:00,21.2,18.7,30.24,SSE,158,2.2,2.2,90,0.00,,---,0.00,VWS V14.01,2013-01-22 03:54:00,
2013-01-21 19:59:00,21.2,18.7,30.24,South,180,2.0,2.0,90,0.00,,---,0.00,VWS V14.01,2013-01-22 03:59:00,
2013-01-21 20:04:00,21.2,18.7,30.27,SSW,202,0.0,0.0,90,0.00,,---,0.00,VWS V14.01,2013-01-22 04:04:00,
2013-01-21 20:10:00,21.4,18.9,30.27,South,180,0.0,0.0,90,0.00,,---,0.00,VWS V14.01,2013-01-22 04:10:00,
2013-01-21 20:15:00,21.4,18.9,30.27,SSE,158,2.2,2.2,90,0.00,,---,0.00,VWS V14.01,2013-01-22 04:15:00,
2013-01-21 20:20:00,21.2,18.7,30.27,South,180,0.9,0.9,90,0.00,,---,0.00,VWS V14.01,2013-01-22 04:20:00,
2013-01-21 20:25:00,21.2,18.7,30.27,SSE,158,0.0,0.0,90,0.00,,---,0.00,VWS V14.01,2013-01-22 04:25:00,
2013-01-21 20:30:00,21.2,19.0,30.27,SSW,202,0.0,0.0,91,0.00,,---,0.00,VWS V14.01,2013-01-22 04:30:00,
2013-01-21 20:35:00,21.4,18.9,30.27,SW,225,0.0,0.0,90,0.00,,---,0.00,VWS V14.01,2013-01-22 04:35:00,
2013-01-21 20:40:00,21.4,18.9,30.27,WSW,248,1.3,1.3,90,0.00,,---,0.00,VWS V14.01,2013-01-22 04:40:00,
2013-01-21 20:45:00,21.2,18.7,30.27,WNW,292,0.0,0.0,90,0.00,,---,0.00,VWS V14.01,2013-01-22 04:45:00,
2013-01-21 20:50:00,21.2,18.7,30.27,WSW,248,0.0,0.0,90,0.00,,---,0.00,VWS V14.01,2013-01-22 04:50:00,
2013-01-21 20:55:00,21.0,18.5,30.27,West,270,1.3,1.3,90,0.00,,---,0.00,VWS V14.01,2013-01-22 04:55:00,
2013-01-21 21:00:00,20.8,18.4,30.27,West,270,0.0,0.0,90,0.00,,---,0.00,VWS V14.01,2013-01-22 05:00:00,
2013-01-21 21:01:00,20.8,18.4,30.27,West,270,0.0,0.0,90,0.00,,---,0.00,VWS V14.01,2013-01-22 05:01:00,
2013-01-21 21:03:00,20.8,18.4,30.27,WSW,248,0.0,0.0,90,0.00,,---,0.00,VWS V14.01,2013-01-22 05:03:00,
2013-01-21 21:08:00,20.8,18.1,30.27,WNW,292,0.0,0.0,89,0.00,,---,0.00,VWS V14.01,2013-01-22 05:08:00,
2013-01-21 21:13:00,20.7,17.9,30.27,West,270,1.6,1.6,89,0.00,,---,0.00,VWS V14.01,2013-01-22 05:13:00,
2013-01-21 21:18:00,20.5,17.8,30.27,WNW,292,0.0,0.0,89,0.00,,---,0.00,VWS V14.01,2013-01-22 05:18:00,
2013-01-21 21:24:00,20.5,17.8,30.27,WSW,248,0.0,0.0,89,0.00,,---,0.00,VWS V14.01,2013-01-22 05:24:00,
2013-01-21 21:29:00,20.5,17.8,30.27,West,270,0.0,0.0,89,0.00,,---,0.00,VWS V14.01,2013-01-22 05:29:00,
2013-01-21 21:34:00,20.3,17.6,30.27,WSW,248,0.0,0.0,89,0.00,,---,0.00,VWS V14.01,2013-01-22 05:34:00,
2013-01-21 21:39:00,20.5,17.8,30.27,WSW,248,0.0,0.0,89,0.00,,---,0.00,VWS V14.01,2013-01-22 05:39:00,
2013-01-21 21:44:00,20.5,17.8,30.27,WNW,292,1.3,1.3,89,0.00,,---,0.00,VWS V14.01,2013-01-22 05:44:00,
2013-01-21 21:49:00,20.3,17.6,30.30,WSW,248,0.9,0.9,89,0.00,,---,0.00,VWS V14.01,2013-01-22 05:49:00,
2013-01-21 21:54:00,20.3,17.6,30.30,WSW,248,0.0,0.0,89,0.00,,---,0.00,VWS V14.01,2013-01-22 05:54:00,
2013-01-21 21:59:00,20.1,17.4,30.30,WSW,248,0.0,0.0,89,0.00,,---,0.00,VWS V14.01,2013-01-22 05:59:00,
2013-01-21 22:04:00,20.1,17.4,30.27,WSW,248,0.0,0.0,89,0.00,,---,0.00,VWS V14.01,2013-01-22 06:04:00,
2013-01-21 22:09:00,20.1,17.4,30.27,WSW,248,0.0,0.0,89,0.00,,---,0.00,VWS V14.01,2013-01-22 06:09:00,
2013-01-21 22:14:00,20.3,17.6,30.27,WSW,248,0.0,0.0,89,0.00,,---,0.00,VWS V14.01,2013-01-22 06:14:00,
2013-01-21 22:19:00,20.3,17.6,30.27,NW,315,0.0,0.0,89,0.00,,---,0.00,VWS V14.01,2013-01-22 06:19:00,
2013-01-21 22:25:00,20.1,17.4,30.27,NW,315,2.5,2.5,89,0.00,,---,0.00,VWS V14.01,2013-01-22 06:25:00,
2013-01-21 22:30:00,19.9,17.2,30.27,NW,315,1.6,1.6,89,0.00,,---,0.00,VWS V14.01,2013-01-22 06:30:00,
2013-01-21 22:35:00,19.8,16.8,30.30,North,0,2.5,2.5,88,0.00,,---,0.00,VWS V14.01,2013-01-22 06:35:00,
2013-01-21 22:40:00,19.6,16.6,30.30,NW,315,0.9,0.9,88,0.00,,---,0.00,VWS V14.01,2013-01-22 06:40:00,
2013-01-21 22:45:00,19.4,16.4,30.30,West,270,1.3,1.3,88,0.00,,---,0.00,VWS V14.01,2013-01-22 06:45:00,
2013-01-21 22:50:00,19.2,16.0,30.30,WNW,292,2.0,2.0,87,0.00,,---,0.00,VWS V14.01,2013-01-22 06:50:00,
2013-01-21 22:55:00,18.7,15.2,30.30,NW,315,1.1,1.1,86,0.00,,---,0.00,VWS V14.01,2013-01-22 06:55:00,
2013-01-21 23:00:00,18.5,14.8,30.30,NW,315,1.1,1.1,85,0.00,,---,0.00,VWS V14.01,2013-01-22 07:00:00,
2013-01-21 23:05:00,18.3,14.6,30.30,WNW,292,2.0,2.0,85,0.00,,---,0.00,VWS V14.01,2013-01-22 07:05:00,
2013-01-21 23:10:00,18.1,14.4,30.30,NW,315,1.1,1.1,85,0.00,,---,0.00,VWS V14.01,2013-01-22 07:10:00,
2013-01-21 23:16:00,18.1,14.1,30.30,NNW,338,0.0,0.0,84,0.00,,---,0.00,VWS V14.01,2013-01-22 07:16:00,
2013-01-21 23:21:00,18.0,13.9,30.30,WNW,292,0.0,0.0,84,0.00,,---,0.00,VWS V14.01,2013-01-22 07:21:00,
2013-01-21 23:26:00,17.8,13.8,30.30,NNW,338,2.7,2.7,84,0.00,,---,0.00,VWS V14.01,2013-01-22 07:26:00,
2013-01-21 23:31:00,17.6,13.6,30.30,WNW,292,1.1,1.1,84,0.00,,---,0.00,VWS V14.01,2013-01-22 07:31:00,
2013-01-21 23:36:00,17.4,13.4,30.30,West,270,0.0,0.0,84,0.00,,---,0.00,VWS V14.01,2013-01-22 07:36:00,
2013-01-21 23:41:00,17.2,13.2,30.30,WNW,292,1.1,1.1,84,0.00,,---,0.00,VWS V14.01,2013-01-22 07:41:00,
2013-01-21 23:46:00,17.1,12.8,30.30,WNW,292,0.0,0.0,83,0.00,,---,0.00,VWS V14.01,2013-01-22 07:46:00,
2013-01-21 23:51:00,16.7,12.4,30.27,WNW,292,0.9,0.9,83,0.00,,---,0.00,VWS V14.01,2013-01-22 07:51:00,
2013-01-21 23:56:00,16.5,12.0,30.27,NW,315,1.1,1.1,82,0.00,,---,0.00,VWS V14.01,2013-01-22 07:56:00,